sensor_id;sensor_type;location;lat;lon;timestamp;pressure;altitude;pressure_sealevel;temperature;humidity
14293;BME280;62290;59.420;17.842;2024-02-21T00:00:53;100699.94;;;23.78;21.70
14293;BME280;62290;59.420;17.842;2024-02-21T00:03:21;100692.72;;;23.79;21.81
14293;BME280;62290;59.420;17.842;2024-02-21T00:05:49;100680.81;;;23.72;21.77
14293;BME280;62290;59.420;17.842;2024-02-21T00:08:18;100679.53;;;23.76;21.86
14293;BME280;62290;59.420;17.842;2024-02-21T00:10:46;100671.63;;;23.74;21.88
14293;BME280;62290;59.420;17.842;2024-02-21T00:13:16;100673.44;;;23.74;21.89
14293;BME280;62290;59.420;17.842;2024-02-21T00:15:44;100664.41;;;23.75;21.81
14293;BME280;62290;59.420;17.842;2024-02-21T00:18:12;100673.03;;;23.78;21.71
14293;BME280;62290;59.420;17.842;2024-02-21T00:20:40;100666.69;;;23.79;21.82
14293;BME280;62290;59.420;17.842;2024-02-21T00:23:09;100664.69;;;23.81;21.79
14293;BME280;62290;59.420;17.842;2024-02-21T00:25:38;100653.94;;;23.81;21.78
14293;BME280;62290;59.420;17.842;2024-02-21T00:28:06;100653.94;;;23.81;21.85
14293;BME280;62290;59.420;17.842;2024-02-21T00:30:35;100654.91;;;23.80;21.91
14293;BME280;62290;59.420;17.842;2024-02-21T00:33:04;100655.75;;;23.81;21.83
14293;BME280;62290;59.420;17.842;2024-02-21T00:35:33;100652.22;;;23.80;21.81
14293;BME280;62290;59.420;17.842;2024-02-21T00:38:00;100644.72;;;23.74;21.98
14293;BME280;62290;59.420;17.842;2024-02-21T00:40:30;100636.63;;;23.74;21.69
14293;BME280;62290;59.420;17.842;2024-02-21T00:42:59;100638.75;;;23.80;21.86
14293;BME280;62290;59.420;17.842;2024-02-21T00:45:27;100629.00;;;23.79;21.82
14293;BME280;62290;59.420;17.842;2024-02-21T00:47:55;100627.28;;;23.78;21.85
14293;BME280;62290;59.420;17.842;2024-02-21T00:50:24;100619.47;;;23.75;21.98
14293;BME280;62290;59.420;17.842;2024-02-21T00:52:51;100605.06;;;23.76;22.21
14293;BME280;62290;59.420;17.842;2024-02-21T00:55:20;100597.97;;;23.75;21.91
14293;BME280;62290;59.420;17.842;2024-02-21T00:57:48;100598.97;;;23.74;22.03
14293;BME280;62290;59.420;17.842;2024-02-21T01:00:18;100593.44;;;23.76;22.10
14293;BME280;62290;59.420;17.842;2024-02-21T01:02:46;100590.91;;;23.74;22.06
14293;BME280;62290;59.420;17.842;2024-02-21T01:05:18;100580.25;;;23.73;22.07
14293;BME280;62290;59.420;17.842;2024-02-21T01:07:46;100583.78;;;23.73;22.00
14293;BME280;62290;59.420;17.842;2024-02-21T01:10:15;100577.72;;;23.71;22.16
14293;BME280;62290;59.420;17.842;2024-02-21T01:12:43;100583.25;;;23.70;22.13
14293;BME280;62290;59.420;17.842;2024-02-21T01:15:11;100578.84;;;23.69;22.15
14293;BME280;62290;59.420;17.842;2024-02-21T01:17:41;100574.31;;;23.69;22.36
14293;BME280;62290;59.420;17.842;2024-02-21T01:20:10;100560.28;;;23.66;22.29
14293;BME280;62290;59.420;17.842;2024-02-21T01:22:38;100563.81;;;23.66;22.20
14293;BME280;62290;59.420;17.842;2024-02-21T01:25:07;100550.38;;;23.66;22.25
14293;BME280;62290;59.420;17.842;2024-02-21T01:27:35;100553.31;;;23.63;22.27
14293;BME280;62290;59.420;17.842;2024-02-21T01:30:04;100557.72;;;23.64;22.24
14293;BME280;62290;59.420;17.842;2024-02-21T01:32:32;100547.94;;;23.63;22.30
14293;BME280;62290;59.420;17.842;2024-02-21T01:35:02;100539.03;;;23.63;22.23
14293;BME280;62290;59.420;17.842;2024-02-21T01:37:30;100524.28;;;23.57;22.24
14293;BME280;62290;59.420;17.842;2024-02-21T01:39:58;100530.41;;;23.59;22.27
14293;BME280;62290;59.420;17.842;2024-02-21T01:42:26;100525.00;;;23.59;22.43
14293;BME280;62290;59.420;17.842;2024-02-21T01:44:54;100526.69;;;23.60;22.28
14293;BME280;62290;59.420;17.842;2024-02-21T01:47:23;100518.63;;;23.60;22.29
14293;BME280;62290;59.420;17.842;2024-02-21T01:49:51;100513.13;;;23.62;22.49
14293;BME280;62290;59.420;17.842;2024-02-21T01:52:20;100503.19;;;23.62;22.48
14293;BME280;62290;59.420;17.842;2024-02-21T01:54:48;100497.81;;;23.62;22.46
14293;BME280;62290;59.420;17.842;2024-02-21T01:57:17;100484.94;;;23.56;22.52
14293;BME280;62290;59.420;17.842;2024-02-21T01:59:45;100480.97;;;23.60;22.36
14293;BME280;62290;59.420;17.842;2024-02-21T02:02:14;100473.75;;;23.61;22.44
14293;BME280;62290;59.420;17.842;2024-02-21T02:04:43;100479.13;;;23.61;22.39
14293;BME280;62290;59.420;17.842;2024-02-21T02:07:12;100464.97;;;23.59;22.45
14293;BME280;62290;59.420;17.842;2024-02-21T02:09:42;100473.75;;;23.61;22.48
14293;BME280;62290;59.420;17.842;2024-02-21T02:12:10;100463.00;;;23.61;22.44
14293;BME280;62290;59.420;17.842;2024-02-21T02:14:38;100454.91;;;23.61;22.53
14293;BME280;62290;59.420;17.842;2024-02-21T02:17:06;100458.47;;;23.61;22.45
14293;BME280;62290;59.420;17.842;2024-02-21T02:19:35;100461.16;;;23.61;22.38
14293;BME280;62290;59.420;17.842;2024-02-21T02:22:10;100450.94;;;23.65;22.52
14293;BME280;62290;59.420;17.842;2024-02-21T02:24:42;100443.47;;;23.68;22.47
14293;BME280;62290;59.420;17.842;2024-02-21T02:27:10;100440.66;;;23.70;22.49
14293;BME280;62290;59.420;17.842;2024-02-21T02:29:38;100451.09;;;23.73;22.47
14293;BME280;62290;59.420;17.842;2024-02-21T02:32:06;100440.06;;;23.76;22.34
14293;BME280;62290;59.420;17.842;2024-02-21T02:34:34;100451.53;;;23.78;22.50
14293;BME280;62290;59.420;17.842;2024-02-21T02:37:02;100454.09;;;23.79;22.43
14293;BME280;62290;59.420;17.842;2024-02-21T02:39:30;100458.63;;;23.79;22.36
14293;BME280;62290;59.420;17.842;2024-02-21T02:41:59;100443.75;;;23.75;22.63
14293;BME280;62290;59.420;17.842;2024-02-21T02:44:27;100459.47;;;23.79;22.58
14293;BME280;62290;59.420;17.842;2024-02-21T02:46:55;100440.66;;;23.70;22.38
14293;BME280;62290;59.420;17.842;2024-02-21T02:49:23;100451.41;;;23.79;22.53
14293;BME280;62290;59.420;17.842;2024-02-21T02:51:51;100433.00;;;23.75;22.37
14293;BME280;62290;59.420;17.842;2024-02-21T02:54:19;100425.63;;;23.77;22.46
14293;BME280;62290;59.420;17.842;2024-02-21T02:56:47;100434.41;;;23.79;22.62
14293;BME280;62290;59.420;17.842;2024-02-21T02:59:16;100428.16;;;23.78;22.49
14293;BME280;62290;59.420;17.842;2024-02-21T03:01:44;100421.09;;;23.77;22.62
14293;BME280;62290;59.420;17.842;2024-02-21T03:04:12;100407.06;;;23.74;22.72
14293;BME280;62290;59.420;17.842;2024-02-21T03:06:40;100414.88;;;23.77;22.81
14293;BME280;62290;59.420;17.842;2024-02-21T03:09:08;100412.88;;;23.79;22.61
14293;BME280;62290;59.420;17.842;2024-02-21T03:11:36;100412.88;;;23.79;22.82
14293;BME280;62290;59.420;17.842;2024-02-21T03:14:07;100393.34;;;23.77;22.63
14293;BME280;62290;59.420;17.842;2024-02-21T03:16:37;100398.84;;;23.75;22.73
14293;BME280;62290;59.420;17.842;2024-02-21T03:19:05;100385.69;;;23.72;22.72
14293;BME280;62290;59.420;17.842;2024-02-21T03:21:34;100389.38;;;23.71;22.57
14293;BME280;62290;59.420;17.842;2024-02-21T03:24:03;100380.31;;;23.72;22.81
14293;BME280;62290;59.420;17.842;2024-02-21T03:26:31;100382.16;;;23.72;22.92
14293;BME280;62290;59.420;17.842;2024-02-21T03:28:59;100370.81;;;23.68;22.81
14293;BME280;62290;59.420;17.842;2024-02-21T03:31:27;100378.59;;;23.71;22.86
14293;BME280;62290;59.420;17.842;2024-02-21T03:33:59;100377.75;;;23.71;23.18
14293;BME280;62290;59.420;17.842;2024-02-21T03:36:27;100367.16;;;23.69;22.99
14293;BME280;62290;59.420;17.842;2024-02-21T03:38:55;100362.75;;;23.68;22.89
14293;BME280;62290;59.420;17.842;2024-02-21T03:41:23;100356.38;;;23.69;22.84
14293;BME280;62290;59.420;17.842;2024-02-21T03:43:51;100354.53;;;23.70;22.96
14293;BME280;62290;59.420;17.842;2024-02-21T03:46:20;100358.78;;;23.72;22.82
14293;BME280;62290;59.420;17.842;2024-02-21T03:48:48;100356.94;;;23.73;22.92
14293;BME280;62290;59.420;17.842;2024-02-21T03:51:17;100343.47;;;23.73;23.05
14293;BME280;62290;59.420;17.842;2024-02-21T03:53:46;100339.97;;;23.72;22.96
14293;BME280;62290;59.420;17.842;2024-02-21T03:56:14;100345.88;;;23.76;22.88
14293;BME280;62290;59.420;17.842;2024-02-21T03:58:42;100344.91;;;23.77;22.94
14293;BME280;62290;59.420;17.842;2024-02-21T04:01:10;100331.28;;;23.78;23.02
14293;BME280;62290;59.420;17.842;2024-02-21T04:03:39;100330.44;;;23.78;22.82
14293;BME280;62290;59.420;17.842;2024-02-21T04:06:07;100326.59;;;23.80;22.81
14293;BME280;62290;59.420;17.842;2024-02-21T04:08:36;100327.47;;;23.81;22.98
14293;BME280;62290;59.420;17.842;2024-02-21T04:11:04;100322.06;;;23.81;22.93
14293;BME280;62290;59.420;17.842;2024-02-21T04:13:32;100318.69;;;23.79;23.00
14293;BME280;62290;59.420;17.842;2024-02-21T04:16:00;100312.63;;;23.77;22.93
14293;BME280;62290;59.420;17.842;2024-02-21T04:18:28;100316.84;;;23.79;23.04
14293;BME280;62290;59.420;17.842;2024-02-21T04:20:56;100308.91;;;23.78;22.94
14293;BME280;62290;59.420;17.842;2024-02-21T04:23:24;100302.72;;;23.77;23.06
14293;BME280;62290;59.420;17.842;2024-02-21T04:25:53;100307.06;;;23.78;22.99
14293;BME280;62290;59.420;17.842;2024-02-21T04:28:21;100304.66;;;23.75;22.99
14293;BME280;62290;59.420;17.842;2024-02-21T04:30:49;100296.59;;;23.75;23.04
14293;BME280;62290;59.420;17.842;2024-02-21T04:33:17;100288.97;;;23.71;23.04
14293;BME280;62290;59.420;17.842;2024-02-21T04:35:45;100298.47;;;23.75;23.04
14293;BME280;62290;59.420;17.842;2024-02-21T04:38:14;100291.22;;;23.75;23.15
14293;BME280;62290;59.420;17.842;2024-02-21T04:40:42;100290.38;;;23.75;22.99
14293;BME280;62290;59.420;17.842;2024-02-21T04:43:12;100286.97;;;23.73;23.02
14293;BME280;62290;59.420;17.842;2024-02-21T04:45:40;100292.22;;;23.74;23.25
14293;BME280;62290;59.420;17.842;2024-02-21T04:48:08;100285.13;;;23.73;23.01
14293;BME280;62290;59.420;17.842;2024-02-21T04:50:36;100288.53;;;23.75;23.21
14293;BME280;62290;59.420;17.842;2024-02-21T04:53:04;100281.47;;;23.74;23.11
14293;BME280;62290;59.420;17.842;2024-02-21T04:55:32;100272.53;;;23.74;23.20
14293;BME280;62290;59.420;17.842;2024-02-21T04:58:00;100274.38;;;23.73;23.30
14293;BME280;62290;59.420;17.842;2024-02-21T05:00:30;100266.31;;;23.73;23.30
14293;BME280;62290;59.420;17.842;2024-02-21T05:02:58;100262.22;;;23.69;23.51
14293;BME280;62290;59.420;17.842;2024-02-21T05:05:26;100265.59;;;23.71;23.49
14293;BME280;62290;59.420;17.842;2024-02-21T05:07:54;100255.81;;;23.70;23.54
14293;BME280;62290;59.420;17.842;2024-02-21T05:10:22;100251.31;;;23.71;23.55
14293;BME280;62290;59.420;17.842;2024-02-21T05:12:50;100257.69;;;23.70;23.64
14293;BME280;62290;59.420;17.842;2024-02-21T05:15:18;100253.13;;;23.70;23.62
14293;BME280;62290;59.420;17.842;2024-02-21T05:17:47;100247.47;;;23.73;23.61
14293;BME280;62290;59.420;17.842;2024-02-21T05:20:15;100246.50;;;23.74;23.54
14293;BME280;62290;59.420;17.842;2024-02-21T05:22:46;100229.91;;;23.79;23.65
14293;BME280;62290;59.420;17.842;2024-02-21T05:25:15;100226.50;;;23.77;23.71
14293;BME280;62290;59.420;17.842;2024-02-21T05:27:43;100230.75;;;23.79;23.61
14293;BME280;62290;59.420;17.842;2024-02-21T05:30:12;100224.97;;;23.74;23.67
14293;BME280;62290;59.420;17.842;2024-02-21T05:32:40;100220.97;;;23.78;23.43
14293;BME280;62290;59.420;17.842;2024-02-21T05:35:09;100216.59;;;23.77;23.57
14293;BME280;62290;59.420;17.842;2024-02-21T05:37:37;100214.03;;;23.76;23.48
14293;BME280;62290;59.420;17.842;2024-02-21T05:40:06;100213.75;;;23.79;23.67
14293;BME280;62290;59.420;17.842;2024-02-21T05:42:34;100206.81;;;23.76;23.58
14293;BME280;62290;59.420;17.842;2024-02-21T05:45:03;100202.44;;;23.75;23.74
14293;BME280;62290;59.420;17.842;2024-02-21T05:47:31;100198.59;;;23.78;23.89
14293;BME280;62290;59.420;17.842;2024-02-21T05:49:59;100198.75;;;23.76;23.67
14293;BME280;62290;59.420;17.842;2024-02-21T05:52:28;100201.44;;;23.76;23.76
14293;BME280;62290;59.420;17.842;2024-02-21T05:54:57;100187.28;;;23.74;23.79
14293;BME280;62290;59.420;17.842;2024-02-21T05:57:25;100183.91;;;23.72;23.83
14293;BME280;62290;59.420;17.842;2024-02-21T05:59:53;100182.03;;;23.73;23.71
14293;BME280;62290;59.420;17.842;2024-02-21T06:02:21;100176.81;;;23.71;23.88
14293;BME280;62290;59.420;17.842;2024-02-21T06:04:49;100175.00;;;23.72;23.90
14293;BME280;62290;59.420;17.842;2024-02-21T06:07:17;100180.38;;;23.72;24.17
14293;BME280;62290;59.420;17.842;2024-02-21T06:09:46;100185.47;;;23.75;24.28
14293;BME280;62290;59.420;17.842;2024-02-21T06:12:14;100182.78;;;23.75;24.13
14293;BME280;62290;59.420;17.842;2024-02-21T06:14:42;100183.47;;;23.77;24.10
14293;BME280;62290;59.420;17.842;2024-02-21T06:17:10;100179.50;;;23.71;24.17
14293;BME280;62290;59.420;17.842;2024-02-21T06:19:39;100183.00;;;23.81;24.09
14293;BME280;62290;59.420;17.842;2024-02-21T06:22:08;100174.38;;;23.78;23.99
14293;BME280;62290;59.420;17.842;2024-02-21T06:24:36;100182.03;;;23.82;24.16
14293;BME280;62290;59.420;17.842;2024-02-21T06:27:06;100164.34;;;23.70;24.26
14293;BME280;62290;59.420;17.842;2024-02-21T06:29:37;100183.69;;;23.83;23.99
14293;BME280;62290;59.420;17.842;2024-02-21T06:32:05;100184.44;;;23.85;24.02
14293;BME280;62290;59.420;17.842;2024-02-21T06:34:33;100179.19;;;23.84;23.90
14293;BME280;62290;59.420;17.842;2024-02-21T06:37:01;100165.31;;;23.79;24.15
14293;BME280;62290;59.420;17.842;2024-02-21T06:39:29;100169.25;;;23.84;24.30
14293;BME280;62290;59.420;17.842;2024-02-21T06:41:57;100165.72;;;23.84;24.20
14293;BME280;62290;59.420;17.842;2024-02-21T06:44:31;100164.88;;;23.83;24.37
14293;BME280;62290;59.420;17.842;2024-02-21T06:47:03;100159.66;;;23.82;24.24
14293;BME280;62290;59.420;17.842;2024-02-21T06:49:31;100155.25;;;23.81;24.23
14293;BME280;62290;59.420;17.842;2024-02-21T06:51:59;100156.09;;;23.81;24.32
14293;BME280;62290;59.420;17.842;2024-02-21T06:54:27;100153.41;;;23.81;24.21
14293;BME280;62290;59.420;17.842;2024-02-21T06:56:55;100145.19;;;23.83;24.18
14293;BME280;62290;59.420;17.842;2024-02-21T06:59:23;100141.66;;;23.82;24.38
14293;BME280;62290;59.420;17.842;2024-02-21T07:01:53;100119.78;;;23.68;24.10
14293;BME280;62290;59.420;17.842;2024-02-21T07:04:22;100133.03;;;23.79;24.33
14293;BME280;62290;59.420;17.842;2024-02-21T07:06:50;100125.94;;;23.78;24.27
14293;BME280;62290;59.420;17.842;2024-02-21T07:09:18;100129.50;;;23.78;24.13
14293;BME280;62290;59.420;17.842;2024-02-21T07:11:46;100126.81;;;23.78;24.08
14293;BME280;62290;59.420;17.842;2024-02-21T07:14:15;100117.19;;;23.76;24.12
14293;BME280;62290;59.420;17.842;2024-02-21T07:16:43;100108.41;;;23.74;24.28
14293;BME280;62290;59.420;17.842;2024-02-21T07:19:14;100104.88;;;23.73;24.06
14293;BME280;62290;59.420;17.842;2024-02-21T07:21:42;100101.50;;;23.71;24.10
14293;BME280;62290;59.420;17.842;2024-02-21T07:24:10;100110.72;;;23.69;24.31
14293;BME280;62290;59.420;17.842;2024-02-21T07:26:41;100100.81;;;23.69;24.20
14293;BME280;62290;59.420;17.842;2024-02-21T07:29:09;100107.34;;;23.67;23.96
14293;BME280;62290;59.420;17.842;2024-02-21T07:31:40;100101.94;;;23.67;24.18
14293;BME280;62290;59.420;17.842;2024-02-21T07:34:09;100106.31;;;23.68;24.20
14293;BME280;62290;59.420;17.842;2024-02-21T07:36:39;100092.88;;;23.68;24.37
14293;BME280;62290;59.420;17.842;2024-02-21T07:39:06;100091.19;;;23.67;24.45
14293;BME280;62290;59.420;17.842;2024-02-21T07:41:34;100096.41;;;23.68;24.34
14293;BME280;62290;59.420;17.842;2024-02-21T07:44:02;100100.94;;;23.68;24.24
14293;BME280;62290;59.420;17.842;2024-02-21T07:46:31;100099.09;;;23.68;24.22
14293;BME280;62290;59.420;17.842;2024-02-21T07:49:00;100101.94;;;23.67;24.33
14293;BME280;62290;59.420;17.842;2024-02-21T07:51:29;100101.22;;;23.65;24.36
14293;BME280;62290;59.420;17.842;2024-02-21T07:53:58;100099.41;;;23.65;24.33
14293;BME280;62290;59.420;17.842;2024-02-21T07:56:27;100099.41;;;23.65;24.40
14293;BME280;62290;59.420;17.842;2024-02-21T07:58:55;100098.69;;;23.63;24.39
14293;BME280;62290;59.420;17.842;2024-02-21T08:01:23;100089.25;;;23.59;24.38
14293;BME280;62290;59.420;17.842;2024-02-21T08:03:52;100096.00;;;23.63;24.63
14293;BME280;62290;59.420;17.842;2024-02-21T08:06:20;100096.00;;;23.63;24.48
14293;BME280;62290;59.420;17.842;2024-02-21T08:08:48;100100.41;;;23.64;24.46
14293;BME280;62290;59.420;17.842;2024-02-21T08:11:17;100095.03;;;23.64;24.37
14293;BME280;62290;59.420;17.842;2024-02-21T08:13:45;100099.41;;;23.65;24.32
14293;BME280;62290;59.420;17.842;2024-02-21T08:16:13;100103.63;;;23.68;24.37
14293;BME280;62290;59.420;17.842;2024-02-21T08:18:43;100096.56;;;23.67;24.26
14293;BME280;62290;59.420;17.842;2024-02-21T08:21:11;100100.09;;;23.67;24.39
14293;BME280;62290;59.420;17.842;2024-02-21T08:23:39;100104.63;;;23.67;24.48
14293;BME280;62290;59.420;17.842;2024-02-21T08:26:07;100106.47;;;23.66;24.53
14293;BME280;62290;59.420;17.842;2024-02-21T08:28:37;100101.94;;;23.67;24.54
14293;BME280;62290;59.420;17.842;2024-02-21T08:31:05;100101.09;;;23.66;24.46
14293;BME280;62290;59.420;17.842;2024-02-21T08:33:32;100098.53;;;23.65;24.61
14293;BME280;62290;59.420;17.842;2024-02-21T08:36:01;100103.09;;;23.64;24.54
14293;BME280;62290;59.420;17.842;2024-02-21T08:38:29;100105.78;;;23.64;24.56
14293;BME280;62290;59.420;17.842;2024-02-21T08:40:57;100094.47;;;23.61;24.52
14293;BME280;62290;59.420;17.842;2024-02-21T08:43:26;100095.44;;;23.60;24.58
14293;BME280;62290;59.420;17.842;2024-02-21T08:45:56;100094.47;;;23.61;24.65
14293;BME280;62290;59.420;17.842;2024-02-21T08:48:24;100089.25;;;23.59;24.68
14293;BME280;62290;59.420;17.842;2024-02-21T08:50:52;100087.38;;;23.60;24.60
14293;BME280;62290;59.420;17.842;2024-02-21T08:53:21;100090.91;;;23.60;24.76
14293;BME280;62290;59.420;17.842;2024-02-21T08:55:49;100076.09;;;23.56;24.66
14293;BME280;62290;59.420;17.842;2024-02-21T08:58:17;100082.72;;;23.62;24.80
14293;BME280;62290;59.420;17.842;2024-02-21T09:00:48;100076.50;;;23.61;24.67
14293;BME280;62290;59.420;17.842;2024-02-21T09:03:17;100076.50;;;23.61;24.72
14293;BME280;62290;59.420;17.842;2024-02-21T09:05:46;100079.31;;;23.60;24.73
14293;BME280;62290;59.420;17.842;2024-02-21T09:08:14;100073.13;;;23.59;24.72
14293;BME280;62290;59.420;17.842;2024-02-21T09:10:42;100071.25;;;23.60;24.83
14293;BME280;62290;59.420;17.842;2024-02-21T09:13:10;100052.00;;;23.55;24.85
14293;BME280;62290;59.420;17.842;2024-02-21T09:15:38;100066.72;;;23.60;24.82
14293;BME280;62290;59.420;17.842;2024-02-21T09:18:06;100057.94;;;23.58;25.12
14293;BME280;62290;59.420;17.842;2024-02-21T09:20:35;100059.66;;;23.59;24.81
14293;BME280;62290;59.420;17.842;2024-02-21T09:23:04;100057.94;;;23.58;24.97
14293;BME280;62290;59.420;17.842;2024-02-21T09:25:32;100043.66;;;23.58;24.92
14293;BME280;62290;59.420;17.842;2024-02-21T09:28:01;100039.97;;;23.59;25.04
14293;BME280;62290;59.420;17.842;2024-02-21T09:30:29;100041.81;;;23.58;24.91
14293;BME280;62290;59.420;17.842;2024-02-21T09:32:57;100041.81;;;23.58;25.01
14293;BME280;62290;59.420;17.842;2024-02-21T09:35:28;100033.91;;;23.57;24.92
14293;BME280;62290;59.420;17.842;2024-02-21T09:37:58;100028.22;;;23.60;25.07
14293;BME280;62290;59.420;17.842;2024-02-21T09:40:26;100028.38;;;23.58;25.05
14293;BME280;62290;59.420;17.842;2024-02-21T09:43:02;100025.22;;;23.63;25.01
14293;BME280;62290;59.420;17.842;2024-02-21T09:45:31;100023.53;;;23.62;24.95
14293;BME280;62290;59.420;17.842;2024-02-21T09:48:12;100023.22;;;23.65;24.97
14293;BME280;62290;59.420;17.842;2024-02-21T09:50:43;100021.84;;;23.61;24.97
14293;BME280;62290;59.420;17.842;2024-02-21T09:53:14;100013.94;;;23.59;25.18
14293;BME280;62290;59.420;17.842;2024-02-21T09:55:43;100028.06;;;23.61;25.12
14293;BME280;62290;59.420;17.842;2024-02-21T09:58:11;100030.75;;;23.61;25.13
14293;BME280;62290;59.420;17.842;2024-02-21T10:00:39;100020.13;;;23.60;25.13
14293;BME280;62290;59.420;17.842;2024-02-21T10:03:07;100020.13;;;23.60;25.26
14293;BME280;62290;59.420;17.842;2024-02-21T10:05:37;100022.81;;;23.60;25.18
14293;BME280;62290;59.420;17.842;2024-02-21T10:08:06;100008.56;;;23.59;25.13
14293;BME280;62290;59.420;17.842;2024-02-21T10:10:42;100017.44;;;23.60;25.24
14293;BME280;62290;59.420;17.842;2024-02-21T10:13:10;100012.41;;;23.57;25.31
14293;BME280;62290;59.420;17.842;2024-02-21T10:15:39;100015.91;;;23.57;25.30
14293;BME280;62290;59.420;17.842;2024-02-21T10:18:06;100022.13;;;23.58;25.33
14293;BME280;62290;59.420;17.842;2024-02-21T10:20:34;100006.16;;;23.56;25.32
14293;BME280;62290;59.420;17.842;2024-02-21T10:23:03;100008.84;;;23.56;25.42
14293;BME280;62290;59.420;17.842;2024-02-21T10:25:35;100000.09;;;23.54;25.40
14293;BME280;62290;59.420;17.842;2024-02-21T10:28:06;100001.75;;;23.55;25.51
14293;BME280;62290;59.420;17.842;2024-02-21T10:30:34;100003.75;;;23.53;25.54
14293;BME280;62290;59.420;17.842;2024-02-21T10:33:02;100003.75;;;23.53;25.52
14293;BME280;62290;59.420;17.842;2024-02-21T10:35:32;100002.06;;;23.52;25.54
14293;BME280;62290;59.420;17.842;2024-02-21T10:38:00;100004.06;;;23.50;25.48
14293;BME280;62290;59.420;17.842;2024-02-21T10:40:30;100006.59;;;23.52;25.67
14293;BME280;62290;59.420;17.842;2024-02-21T10:42:59;99996.84;;;23.51;25.50
14293;BME280;62290;59.420;17.842;2024-02-21T10:45:31;99994.00;;;23.52;25.65
14293;BME280;62290;59.420;17.842;2024-02-21T10:48:08;99984.00;;;23.45;25.57
14293;BME280;62290;59.420;17.842;2024-02-21T10:50:51;99994.28;;;23.49;25.60
14293;BME280;62290;59.420;17.842;2024-02-21T10:53:29;99989.06;;;23.48;25.59
14293;BME280;62290;59.420;17.842;2024-02-21T10:56:09;99987.38;;;23.47;25.70
14293;BME280;62290;59.420;17.842;2024-02-21T10:58:41;99987.38;;;23.47;25.75
14293;BME280;62290;59.420;17.842;2024-02-21T11:01:12;99986.38;;;23.48;25.84
14293;BME280;62290;59.420;17.842;2024-02-21T11:03:42;99978.31;;;23.48;25.73
14293;BME280;62290;59.420;17.842;2024-02-21T11:06:12;99955.84;;;23.39;25.76
14293;BME280;62290;59.420;17.842;2024-02-21T11:08:40;99973.63;;;23.50;25.65
14293;BME280;62290;59.420;17.842;2024-02-21T11:11:08;99977.84;;;23.52;25.67
14293;BME280;62290;59.420;17.842;2024-02-21T11:14:04;99974.31;;;23.52;25.62
14293;BME280;62290;59.420;17.842;2024-02-21T11:16:37;99974.31;;;23.52;25.74
14293;BME280;62290;59.420;17.842;2024-02-21T11:19:07;99974.31;;;23.52;25.72
14293;BME280;62290;59.420;17.842;2024-02-21T11:21:37;99969.09;;;23.50;25.71
14293;BME280;62290;59.420;17.842;2024-02-21T11:24:05;99972.66;;;23.51;25.74
14293;BME280;62290;59.420;17.842;2024-02-21T11:26:33;99971.94;;;23.49;25.74
14293;BME280;62290;59.420;17.842;2024-02-21T11:29:04;99972.78;;;23.49;25.79
14293;BME280;62290;59.420;17.842;2024-02-21T11:31:40;99973.78;;;23.48;25.72
14293;BME280;62290;59.420;17.842;2024-02-21T11:34:09;99970.41;;;23.46;25.81
14293;BME280;62290;59.420;17.842;2024-02-21T11:36:47;99962.47;;;23.45;25.88
14293;BME280;62290;59.420;17.842;2024-02-21T11:39:24;99957.94;;;23.45;25.74
14293;BME280;62290;59.420;17.842;2024-02-21T11:42:02;99954.56;;;23.43;25.92
14293;BME280;62290;59.420;17.842;2024-02-21T11:44:31;99938.91;;;23.29;26.06
14293;BME280;62290;59.420;17.842;2024-02-21T11:47:01;99958.13;;;23.44;25.82
14293;BME280;62290;59.420;17.842;2024-02-21T11:49:30;99952.03;;;23.42;25.90
14293;BME280;62290;59.420;17.842;2024-02-21T11:51:59;99954.56;;;23.43;25.92
14293;BME280;62290;59.420;17.842;2024-02-21T11:54:29;99934.53;;;23.28;26.04
14293;BME280;62290;59.420;17.842;2024-02-21T11:56:57;99952.88;;;23.42;25.93
14293;BME280;62290;59.420;17.842;2024-02-21T11:59:25;99954.72;;;23.42;25.94
14293;BME280;62290;59.420;17.842;2024-02-21T12:01:53;99956.56;;;23.41;25.96
14293;BME280;62290;59.420;17.842;2024-02-21T12:04:23;99956.56;;;23.41;25.88
14293;BME280;62290;59.420;17.842;2024-02-21T12:06:53;99926.22;;;23.21;26.14
14293;BME280;62290;59.420;17.842;2024-02-21T12:09:22;99956.56;;;23.41;26.06
14293;BME280;62290;59.420;17.842;2024-02-21T12:11:57;99954.03;;;23.40;26.09
14293;BME280;62290;59.420;17.842;2024-02-21T12:14:27;99958.53;;;23.39;26.03
14293;BME280;62290;59.420;17.842;2024-02-21T12:16:55;99947.97;;;23.38;26.15
14293;BME280;62290;59.420;17.842;2024-02-21T12:19:25;99946.25;;;23.37;26.13
14293;BME280;62290;59.420;17.842;2024-02-21T12:21:53;99947.22;;;23.35;26.18
14293;BME280;62290;59.420;17.842;2024-02-21T12:24:25;99940.00;;;23.36;26.29
14293;BME280;62290;59.420;17.842;2024-02-21T12:26:54;99939.16;;;23.35;26.17
14293;BME280;62290;59.420;17.842;2024-02-21T12:29:23;99940.00;;;23.36;26.27
14293;BME280;62290;59.420;17.842;2024-02-21T12:31:52;99936.34;;;23.37;26.23
14293;BME280;62290;59.420;17.842;2024-02-21T12:34:20;99929.13;;;23.38;26.18
14293;BME280;62290;59.420;17.842;2024-02-21T12:37:05;99937.03;;;23.39;26.10
14293;BME280;62290;59.420;17.842;2024-02-21T12:39:33;99944.13;;;23.40;26.19
14293;BME280;62290;59.420;17.842;2024-02-21T12:42:02;99944.97;;;23.41;26.14
14293;BME280;62290;59.420;17.842;2024-02-21T12:44:30;99940.56;;;23.40;26.12
14293;BME280;62290;59.420;17.842;2024-02-21T12:46:58;99938.75;;;23.40;26.18
14293;BME280;62290;59.420;17.842;2024-02-21T12:49:27;99939.72;;;23.39;26.29